Nearby METAR Reports

 

GCLP - Las Palmas/Gando, Spain
Distance from station: NE 26km
Updated: 22/08/2019 17:30
Few Clouds
Few Clouds
 Wind from NNE
Wind: NNE 48 km/h
Temperature: 26°C
Dew Point: 19°C
Humidity: 65%
Barometer: 1011 hPa
Clouds: Few Clouds
Visibility: 10 km
Cloud details: Few Clouds 762 m
2019/08/22 17:30 GCLP 221730Z 02026KT 9999 FEW025 26/19 Q1011 NOSIG
GCTS - Tenerife Sur/Rei, Spain
Distance from station: WNW 102km
Updated: 22/08/2019 17:30
Clear
Clear
 Wind from ENE
Wind: ENE 31 km/h
Temperature: 27°C
Heat Index: 28°C
Dew Point: 18°C
Humidity: 58%
Barometer: 1012 hPa
Summary: Clear
Visibility: greater than 10 km
2019/08/22 17:30 GCTS 221730Z 07017KT CAVOK 27/18 Q1012 WS R07 NOSIG
 
GCXO - Tenerife/Los Rod, Spain
Distance from station: NW 110km
Updated: 22/08/2019 17:30
Few Clouds
Few Clouds
 Wind from W
Wind: W 28 km/h
Temperature: 20°C
Dew Point: 16°C
Humidity: 78%
Barometer: 1016 hPa
Clouds: Few Clouds
Visibility: 10 km
Cloud details: Few Clouds 152 m
2019/08/22 17:30 GCXO 221730Z 28015KT 9999 FEW005 20/16 Q1016 NOSIG
GCGM - La Gomera Arpt, Spain
Distance from station: W 164km
Updated: 22/08/2019 17:30
Clear
Clear
 Wind from SSW
Wind: SSW 11 km/h
Temperature: 25°C
Dew Point: 19°C
Humidity: 69%
Barometer: 1013 hPa
Clouds: Clear
Visibility: 10 km
2019/08/22 17:30 GCGM 221730Z AUTO 20006KT 150V250 9999 NCD 25/19 Q1013 RMK R09/18004KT 120V210 ARP/21005KT 160V250
 
GCFV - Fuerteventura Ar, Spain
Distance from station: ENE 183km
Updated: 22/08/2019 17:30
Few Clouds
Few Clouds
 Wind from NE
Wind: NE 28 km/h
Temperature: 25°C
Dew Point: 21°C
Humidity: 79%
Barometer: 1011 hPa
Clouds: Few Clouds
Visibility: 10 km
Cloud details: Few Clouds 762 m
2019/08/22 17:30 GCFV 221730Z 05015KT 9999 FEW025 25/21 Q1011
GCHI - Hierro Airport, Spain
Distance from station: W 226km
Updated: 22/08/2019 17:30
Few Clouds
Few Clouds
 Wind from N
Wind: N 39 km/h
Temperature: 25°C
Dew Point: 19°C
Humidity: 69%
Barometer: 1014 hPa
Clouds: Few Clouds
Visibility: 10 km
Cloud details: Few Clouds 671 m
2019/08/22 17:30 GCHI 221730Z 35021KT 9999 FEW022 25/19 Q1014
 
GCLA - La Palma Airport, Spain
Distance from station: WNW 233km
Updated: 22/08/2019 17:30
Clear
Clear
 Wind from NNE
Wind: NNE 26 km/h
Temperature: 24°C
Dew Point: 19°C
Humidity: 74%
Barometer: 1014 hPa
Summary: Clear
Visibility: greater than 10 km
2019/08/22 17:30 GCLA 221730Z 03014KT CAVOK 24/19 Q1014
GCRR - Arrecife/Lanzaro, Spain
Distance from station: NE 234km
Updated: 22/08/2019 17:30
Few Clouds
Few Clouds
 Wind from N
Wind: N 39 km/h
Temperature: 26°C
Dew Point: 19°C
Humidity: 65%
Barometer: 1011 hPa
Clouds: Few Clouds
Visibility: 10 km
Cloud details: Few Clouds 762 m
2019/08/22 17:30 GCRR 221730Z 36021KT 9999 FEW025 26/19 Q1011
 
LPMA - Funchal/Madeira, Portugal
Distance from station: NNW 556km
Updated: 22/08/2019 17:30
Few Clouds
Few Clouds
 Wind from NNE
Wind: NNE 24 km/h
Temperature: 24°C
Dew Point: 16°C
Humidity: 61%
Barometer: 1016 hPa
Clouds: Few Clouds
Visibility: 10 km
Cloud details: Few Clouds 549 m
2019/08/22 17:30 LPMA 221730Z 02013KT 330V040 9999 FEW018 24/16 Q1016
LPPS - Porto Santo Isla, Portugal
Distance from station: N 594km
Updated: 22/08/2019 17:30
Few Clouds
Few Clouds
 Wind from N
Wind: N 22 km/h
Temperature: 23°C
Dew Point: 17°C
Humidity: 69%
Barometer: 1017 hPa
Clouds: Few Clouds
Visibility: 10 km
Cloud details: Few Clouds 488 m
2019/08/22 17:30 LPPS 221730Z 01012KT 350V050 9999 FEW016 23/17 Q1017